createdAt,value
2022-12-31T00:00:39.431Z,1000.35
2022-12-31T00:04:35.852Z,1000.36
2022-12-31T00:08:35.611Z,1000.36
2022-12-31T00:12:35.189Z,1000.57
2022-12-31T00:16:44.154Z,1000.59
2022-12-31T00:20:35.726Z,1000.54
2022-12-31T00:24:35.545Z,1000.49
2022-12-31T00:28:35.433Z,1000.66
2022-12-31T00:32:35.284Z,1000.71
2022-12-31T00:36:35.302Z,1000.66
2022-12-31T00:40:35.769Z,1000.66
2022-12-31T00:44:35.473Z,1000.48
2022-12-31T00:48:35.100Z,1000.51
2022-12-31T00:52:35.771Z,1000.42
2022-12-31T00:56:35.556Z,1000.6
2022-12-31T01:00:40.888Z,1000.5
2022-12-31T01:04:35.993Z,1000.52
2022-12-31T01:08:35.537Z,1000.43
2022-12-31T01:12:35.259Z,1000.42
2022-12-31T01:16:36.190Z,1000.47
2022-12-31T01:20:35.709Z,1000.34
2022-12-31T01:24:35.269Z,1000.24
2022-12-31T01:28:35.618Z,1000.45
2022-12-31T01:32:35.800Z,1000.46
2022-12-31T01:36:37.601Z,1000.4
2022-12-31T01:40:36.087Z,1000.31
2022-12-31T01:44:35.785Z,1000.32
2022-12-31T01:48:35.656Z,1000.4
2022-12-31T01:52:35.346Z,1000.33
2022-12-31T01:56:35.228Z,1000.25
2022-12-31T02:00:38.625Z,1000.14
2022-12-31T02:04:35.575Z,1000.33
2022-12-31T02:08:41.622Z,1000.56
2022-12-31T02:12:35.961Z,1000.65
2022-12-31T02:16:35.894Z,1000.64
2022-12-31T02:20:35.234Z,1000.71
2022-12-31T02:24:35.904Z,1000.78
2022-12-31T02:28:35.845Z,1000.68
2022-12-31T02:32:35.351Z,1000.63
2022-12-31T02:36:36.003Z,1000.54
2022-12-31T02:40:35.600Z,1000.48
2022-12-31T02:44:35.504Z,1000.64
2022-12-31T02:48:35.180Z,1000.52
2022-12-31T02:52:35.719Z,1000.65
2022-12-31T02:56:35.217Z,1000.77
2022-12-31T03:00:38.947Z,1000.75
2022-12-31T03:04:35.591Z,1000.76
2022-12-31T03:08:35.334Z,1000.71
2022-12-31T03:12:35.867Z,1000.79
2022-12-31T03:16:35.654Z,1000.76
2022-12-31T03:20:35.259Z,1000.89
2022-12-31T03:24:36.017Z,1000.83
2022-12-31T03:28:35.595Z,1000.81
2022-12-31T03:32:35.199Z,1000.67
2022-12-31T03:36:35.925Z,1000.62
2022-12-31T03:40:35.557Z,1000.43
2022-12-31T03:44:36.065Z,1000.39
2022-12-31T03:48:35.605Z,1000.34
2022-12-31T03:52:35.297Z,1000.3
2022-12-31T03:56:35.939Z,1000.43
2022-12-31T04:00:43.205Z,1000.48
2022-12-31T04:04:35.774Z,1000.59
2022-12-31T04:08:35.543Z,1000.4
2022-12-31T04:12:35.263Z,1000.45
2022-12-31T04:16:36.069Z,1000.36
2022-12-31T04:20:35.391Z,1000.5
2022-12-31T04:24:35.154Z,1000.57
2022-12-31T04:28:35.957Z,1000.46
2022-12-31T04:32:35.802Z,1000.51
2022-12-31T04:36:35.208Z,1000.55
2022-12-31T04:40:40.681Z,1000.62
2022-12-31T04:44:35.553Z,1000.68
2022-12-31T04:48:35.457Z,1000.57
2022-12-31T04:52:40.518Z,1000.58
2022-12-31T04:56:36.089Z,1000.56
2022-12-31T05:00:38.826Z,1000.58
2022-12-31T05:04:35.638Z,1000.54
2022-12-31T05:08:35.385Z,1000.49
2022-12-31T05:12:35.157Z,1000.58
2022-12-31T05:16:36.284Z,1000.61
2022-12-31T05:20:35.707Z,1000.63
2022-12-31T05:24:35.364Z,1000.53
2022-12-31T05:28:35.175Z,1000.64
2022-12-31T05:32:35.708Z,1000.5
2022-12-31T05:36:35.421Z,1000.54
2022-12-31T05:40:36.068Z,1000.56
2022-12-31T05:44:35.976Z,1000.44
2022-12-31T05:48:35.555Z,1000.52
2022-12-31T05:52:35.421Z,1000.62
2022-12-31T05:56:35.216Z,1000.51
2022-12-31T06:00:39.558Z,1000.43
2022-12-31T06:04:35.468Z,1000.45
2022-12-31T06:08:35.905Z,1000.59
2022-12-31T06:12:35.705Z,1000.52
2022-12-31T06:16:35.219Z,1000.57
2022-12-31T06:20:43.099Z,1000.48
2022-12-31T06:24:35.669Z,1000.59
2022-12-31T06:28:43.079Z,1000.64
2022-12-31T06:32:35.024Z,1000.51
2022-12-31T06:36:35.819Z,1000.43
2022-12-31T06:40:35.572Z,1000.45
2022-12-31T06:44:35.075Z,1000.32
2022-12-31T06:48:35.888Z,1000.42
2022-12-31T06:52:35.697Z,1000.63
2022-12-31T06:56:44.650Z,1000.51
2022-12-31T07:00:39.657Z,1000.68
2022-12-31T07:04:35.422Z,1000.59
2022-12-31T07:08:35.209Z,1000.51
2022-12-31T07:12:35.948Z,1000.6
2022-12-31T07:16:36.102Z,1000.61
2022-12-31T07:20:35.462Z,1000.56
2022-12-31T07:24:35.162Z,1000.48
2022-12-31T07:28:35.725Z,1000.73
2022-12-31T07:32:35.588Z,1000.76
2022-12-31T07:36:35.362Z,1000.81
2022-12-31T07:40:35.294Z,1000.75
2022-12-31T07:44:35.811Z,1000.93
2022-12-31T07:48:37.020Z,1000.8
2022-12-31T07:52:35.060Z,1000.9
2022-12-31T07:56:35.856Z,1000.96
2022-12-31T08:00:38.583Z,1000.77
2022-12-31T08:04:35.371Z,1000.76
2022-12-31T08:08:35.137Z,1000.98
2022-12-31T08:12:35.694Z,1001.27
2022-12-31T08:16:35.850Z,1001.32
2022-12-31T08:20:35.606Z,1001.18
2022-12-31T08:24:35.840Z,1001.12
2022-12-31T08:28:35.800Z,1000.99
2022-12-31T08:32:35.377Z,1001.43
2022-12-31T08:36:36.082Z,1001.38
2022-12-31T08:40:35.835Z,1001.31
2022-12-31T08:44:35.552Z,1001.28
2022-12-31T08:48:35.907Z,1001.68
2022-12-31T08:52:35.597Z,1001.58
2022-12-31T08:56:35.215Z,1001.67
2022-12-31T09:00:39.003Z,1001.79
2022-12-31T09:04:36.406Z,1001.85
2022-12-31T09:08:35.710Z,1001.94
2022-12-31T09:12:35.548Z,1001.98
2022-12-31T09:16:35.269Z,1001.92
2022-12-31T09:20:44.138Z,1002.08
2022-12-31T09:24:43.080Z,1002.03
2022-12-31T09:28:35.861Z,1002.31
2022-12-31T09:32:35.416Z,1002.28
2022-12-31T09:36:36.089Z,1002.18
2022-12-31T09:40:35.580Z,1002.2
2022-12-31T09:44:35.909Z,1001.91
2022-12-31T09:48:35.669Z,1002.06
2022-12-31T09:52:35.352Z,1002.24
2022-12-31T09:56:35.120Z,1002.23
2022-12-31T10:00:38.284Z,1002.29
2022-12-31T10:04:35.892Z,1002.22
2022-12-31T10:08:35.385Z,1002.27
2022-12-31T10:12:36.022Z,1002.38
2022-12-31T10:16:35.637Z,1002.43
2022-12-31T10:20:40.121Z,1002.61
2022-12-31T10:24:35.921Z,1002.68
2022-12-31T10:28:35.188Z,1002.74
2022-12-31T10:32:42.831Z,1002.58
2022-12-31T10:36:35.572Z,1002.6
2022-12-31T10:40:35.944Z,1002.66
2022-12-31T10:44:35.563Z,1002.79
2022-12-31T10:48:35.147Z,1002.61
2022-12-31T10:52:41.518Z,1002.66
2022-12-31T10:56:35.432Z,1002.76
2022-12-31T11:00:38.911Z,1002.91
2022-12-31T11:04:35.614Z,1002.9
2022-12-31T11:08:35.192Z,1003.03
2022-12-31T11:12:35.659Z,1003.06
2022-12-31T11:16:35.655Z,1003.05
2022-12-31T11:20:36.055Z,1003.01
2022-12-31T11:24:35.617Z,1003.06
2022-12-31T11:28:35.303Z,1002.94
2022-12-31T11:32:35.960Z,1002.97
2022-12-31T11:36:35.327Z,1002.99
2022-12-31T11:40:35.108Z,1002.91
2022-12-31T11:44:35.955Z,1002.74
2022-12-31T11:49:04.249Z,1002.78
2022-12-31T11:52:40.926Z,1002.69
2022-12-31T11:56:35.847Z,1002.74
2022-12-31T12:00:39.145Z,1002.72
2022-12-31T12:04:35.936Z,1002.61
2022-12-31T12:08:35.677Z,1002.58
2022-12-31T12:12:35.144Z,1002.55
2022-12-31T12:16:35.916Z,1002.64
2022-12-31T12:20:35.571Z,1002.63
2022-12-31T12:24:36.102Z,1002.86
2022-12-31T12:28:39.584Z,1002.52
2022-12-31T12:32:35.964Z,1002.39
2022-12-31T12:36:35.526Z,1002.37
2022-12-31T12:40:44.575Z,1002.3
2022-12-31T12:44:35.941Z,1002.33
2022-12-31T12:48:35.518Z,1002.34
2022-12-31T12:52:35.305Z,1002.18
2022-12-31T12:56:35.109Z,1002.16
2022-12-31T13:00:41.538Z,1002.48
2022-12-31T13:05:07.677Z,1002.52
2022-12-31T13:08:35.945Z,1002.52
2022-12-31T13:13:25.639Z,1002.76
2022-12-31T13:16:35.687Z,1002.76
2022-12-31T13:20:36.100Z,1002.69
2022-12-31T13:24:35.621Z,1002.73
2022-12-31T13:28:35.642Z,1002.59
2022-12-31T13:32:35.428Z,1002.68
2022-12-31T13:36:36.066Z,1002.79
2022-12-31T13:40:35.648Z,1002.73
2022-12-31T13:44:35.032Z,1002.89
2022-12-31T13:48:35.598Z,1003.17
2022-12-31T13:52:35.389Z,1003.07
2022-12-31T13:56:35.193Z,1002.85
2022-12-31T14:00:38.810Z,1003.06
2022-12-31T14:04:35.720Z,1002.73
2022-12-31T14:08:35.139Z,1002.65
2022-12-31T14:12:35.807Z,1002.91
2022-12-31T14:16:35.752Z,1002.79
2022-12-31T14:20:35.178Z,1002.92
2022-12-31T14:24:35.941Z,1003.04
2022-12-31T14:28:35.568Z,1002.94
2022-12-31T14:32:35.373Z,1002.83
2022-12-31T14:36:43.855Z,1002.83
2022-12-31T14:40:36.135Z,1002.93
2022-12-31T14:44:35.600Z,1003.07
2022-12-31T14:48:42.609Z,1003.13
2022-12-31T14:52:36.015Z,1003.14
2022-12-31T14:56:35.657Z,1003.32
2022-12-31T15:00:38.859Z,1002.98
2022-12-31T15:04:35.875Z,1003.29
2022-12-31T15:08:35.633Z,1003.15
2022-12-31T15:12:35.501Z,1003.16
2022-12-31T15:16:35.558Z,1003.28
2022-12-31T15:20:40.208Z,1003.27
2022-12-31T15:24:35.402Z,1003.19
2022-12-31T15:28:35.087Z,1003.24
2022-12-31T15:32:35.085Z,1003.2
2022-12-31T15:36:35.992Z,1003.22
2022-12-31T15:40:35.555Z,1003.15
2022-12-31T15:44:35.242Z,1003.01
2022-12-31T15:48:35.918Z,1002.97
2022-12-31T15:52:35.652Z,1002.99
2022-12-31T15:56:35.135Z,1002.91
2022-12-31T16:00:38.473Z,1002.81
2022-12-31T16:04:35.576Z,1002.67
2022-12-31T16:08:35.330Z,1002.67
2022-12-31T16:12:44.859Z,1002.64
2022-12-31T16:16:35.700Z,1002.74
2022-12-31T16:20:35.409Z,1002.75
2022-12-31T16:24:37.422Z,1002.81
2022-12-31T16:28:35.478Z,1002.62
2022-12-31T16:32:35.909Z,1002.47
2022-12-31T16:36:35.795Z,1002.53
2022-12-31T16:40:35.591Z,1002.54
2022-12-31T16:44:35.221Z,1002.25
2022-12-31T16:48:39.948Z,1002.48
2022-12-31T16:52:35.538Z,1002.63
2022-12-31T16:56:35.165Z,1002.42
2022-12-31T17:00:38.904Z,1002.28
2022-12-31T17:04:38.914Z,1002.38
2022-12-31T17:08:35.501Z,1002.27
2022-12-31T17:12:53.010Z,1002.48
2022-12-31T17:16:36.010Z,1002.28
2022-12-31T17:20:35.301Z,1002.22
2022-12-31T17:24:36.042Z,1002.21
2022-12-31T17:28:35.577Z,1002.07
2022-12-31T17:32:35.403Z,1002.17
2022-12-31T17:36:36.053Z,1002.48
2022-12-31T17:41:22.887Z,1002.36
2022-12-31T17:44:35.709Z,1002.26
2022-12-31T17:48:35.393Z,1002.23
2022-12-31T17:52:35.291Z,1002.3
2022-12-31T17:56:35.659Z,1002.36
2022-12-31T18:00:39.547Z,1002.4
2022-12-31T18:04:36.082Z,1002.44
2022-12-31T18:08:35.788Z,1002.48
2022-12-31T18:12:35.871Z,1002.35
2022-12-31T18:16:36.293Z,1002.42
2022-12-31T18:20:40.518Z,1002.36
2022-12-31T18:24:37.524Z,1002.31
2022-12-31T18:28:35.879Z,1002.48
2022-12-31T18:32:35.529Z,1002.67
2022-12-31T18:36:44.177Z,1002.45
2022-12-31T18:40:35.600Z,1002.55
2022-12-31T18:44:36.014Z,1002.66
2022-12-31T18:48:35.500Z,1002.57
2022-12-31T18:52:36.111Z,1002.63
2022-12-31T18:56:35.593Z,1002.55
2022-12-31T19:00:38.132Z,1002.51
2022-12-31T19:04:39.668Z,1002.72
2022-12-31T19:08:35.370Z,1002.84
2022-12-31T19:12:35.078Z,1002.63
2022-12-31T19:16:36.058Z,1002.66
2022-12-31T19:20:35.662Z,1002.64
2022-12-31T19:24:35.337Z,1002.64
2022-12-31T19:28:35.184Z,1002.82
2022-12-31T19:32:36.100Z,1002.77
2022-12-31T19:36:41.835Z,1002.82
2022-12-31T19:40:35.320Z,1002.93
2022-12-31T19:44:35.078Z,1002.89
2022-12-31T19:48:44.242Z,1003.02
2022-12-31T19:52:35.739Z,1003.04
2022-12-31T19:56:35.367Z,1003
2022-12-31T20:00:40.529Z,1003.2
2022-12-31T20:04:35.464Z,1003.22
2022-12-31T20:08:35.156Z,1003.28
2022-12-31T20:12:40.686Z,1003.27
2022-12-31T20:16:35.840Z,1003.45
2022-12-31T20:20:35.973Z,1003.09
2022-12-31T20:24:35.716Z,1003.01
2022-12-31T20:28:35.416Z,1003.25
2022-12-31T20:32:35.137Z,1003.12
2022-12-31T20:36:35.585Z,1003.11
2022-12-31T20:40:37.262Z,1003.31
2022-12-31T20:44:35.236Z,1003.26
2022-12-31T20:48:35.829Z,1003.34
2022-12-31T20:52:35.450Z,1003.34
2022-12-31T20:56:35.988Z,1003.42
2022-12-31T21:00:40.768Z,1003.6
2022-12-31T21:04:40.987Z,1003.38
2022-12-31T21:06:36.206Z,1003.38
2022-12-31T21:08:42.374Z,1003.41
2022-12-31T21:10:35.754Z,1003.41
2022-12-31T21:12:34.996Z,1003.42
2022-12-31T21:14:39.843Z,1003.42
2022-12-31T21:16:36.011Z,1003.38
2022-12-31T21:18:35.129Z,1003.38
2022-12-31T21:20:35.558Z,1003.25
2022-12-31T21:22:35.923Z,1003.25
2022-12-31T21:24:35.722Z,1003.31
2022-12-31T21:26:35.485Z,1003.31
2022-12-31T21:28:35.661Z,1003.39
2022-12-31T21:30:53.290Z,1003.39
2022-12-31T21:32:36.196Z,1003.52
2022-12-31T21:34:35.364Z,1003.52
2022-12-31T21:36:38.742Z,1003.52
2022-12-31T21:40:35.468Z,1003.65
2022-12-31T21:42:35.362Z,1003.65
2022-12-31T21:44:35.790Z,1003.6
2022-12-31T21:46:35.416Z,1003.6
2022-12-31T21:48:35.347Z,1003.44
2022-12-31T21:50:35.730Z,1003.44
2022-12-31T21:52:36.013Z,1003.6
2022-12-31T21:54:35.277Z,1003.6
2022-12-31T21:56:35.464Z,1003.62
2022-12-31T21:59:00.948Z,1003.62
2022-12-31T22:01:14.900Z,1003.61
2022-12-31T22:05:34.574Z,1003.69
2022-12-31T22:06:35.173Z,1003.69
2022-12-31T22:08:35.497Z,1003.58
2022-12-31T22:10:37.366Z,1003.58
2022-12-31T22:12:35.222Z,1003.45
2022-12-31T22:14:35.236Z,1003.45
2022-12-31T22:16:40.311Z,1003.6
2022-12-31T22:18:35.961Z,1003.6
2022-12-31T22:21:00.580Z,1003.64
2022-12-31T22:22:35.603Z,1003.64
2022-12-31T22:24:35.966Z,1003.56
2022-12-31T22:26:36.905Z,1003.56
2022-12-31T22:29:11.648Z,1003.57
2022-12-31T22:32:35.366Z,1003.5
2022-12-31T22:34:35.552Z,1003.5
2022-12-31T22:36:35.764Z,1003.49
2022-12-31T22:38:43.807Z,1003.49
2022-12-31T22:40:35.567Z,1003.56
2022-12-31T22:42:35.635Z,1003.56
2022-12-31T22:44:38.794Z,1003.54
2022-12-31T22:46:35.617Z,1003.54
2022-12-31T22:48:35.579Z,1003.68
2022-12-31T22:50:35.940Z,1003.68
2022-12-31T22:52:42.414Z,1003.71
2022-12-31T22:54:35.603Z,1003.71
2022-12-31T22:56:35.938Z,1003.87
2022-12-31T22:58:35.188Z,1003.87
2022-12-31T23:00:40.427Z,1003.93
2022-12-31T23:02:41.358Z,1003.93
2022-12-31T23:04:36.458Z,1004.1
2022-12-31T23:06:35.186Z,1004.1
2022-12-31T23:08:46.631Z,1004.2
2022-12-31T23:10:36.090Z,1004.2
2022-12-31T23:12:35.373Z,1004.24
2022-12-31T23:14:35.782Z,1004.24
2022-12-31T23:16:36.194Z,1004.27
2022-12-31T23:18:35.558Z,1004.27
2022-12-31T23:20:36.148Z,1004.39
2022-12-31T23:22:35.340Z,1004.39
2022-12-31T23:24:45.490Z,1004.36
2022-12-31T23:26:35.951Z,1004.36
2022-12-31T23:28:35.172Z,1004.35
2022-12-31T23:30:35.643Z,1004.35
2022-12-31T23:32:35.806Z,1004.37
2022-12-31T23:34:35.047Z,1004.37
2022-12-31T23:36:35.187Z,1004.4
2022-12-31T23:38:35.403Z,1004.4
2022-12-31T23:40:43.609Z,1004.23
2022-12-31T23:42:36.085Z,1004.31
2022-12-31T23:44:35.317Z,1004.31
2022-12-31T23:46:35.764Z,1004.25
2022-12-31T23:48:35.828Z,1004.25
2022-12-31T23:50:35.953Z,1004.27
2022-12-31T23:52:35.397Z,1004.27
2022-12-31T23:54:35.672Z,1004.35
2022-12-31T23:56:46.765Z,1004.35
2022-12-31T23:58:35.386Z,1004.31
